Time;durP1;ratioP1;P1;durP2;ratioP2;P2;SDS_P1;SDS_P2;PMS_P1;PMS_P2;Temp;Humidity;BMP_temperature;BMP_pressure;BME280_temperature;BME280_humidity;BME280_pressure;Samples;Min_cycle;Max_cycle;Signal;HPM_P1;HPM_P2
2021/08/29 00:00:27;;;;;;;8.70;7.90;;;15.60;1.00;16.50;100639.00;;;;4896673;29;20483;-80
2021/08/29 00:02:56;;;;;;;8.20;7.40;;;15.60;1.00;16.40;100627.00;;;;4891377;29;20527;-80
2021/08/29 00:05:25;;;;;;;9.90;8.57;;;15.60;1.00;16.50;100639.00;;;;4898859;29;20451;-80
2021/08/29 00:07:53;;;;;;;9.27;8.40;;;15.60;1.00;16.40;100623.00;;;;4907556;29;20473;-81
2021/08/29 00:10:22;;;;;;;8.87;7.97;;;15.60;1.00;16.40;100630.00;;;;4897296;29;20491;-77
2021/08/29 00:12:52;;;;;;;8.60;7.10;;;15.60;1.00;16.40;100627.00;;;;4907274;29;20463;-81
2021/08/29 00:15:20;;;;;;;8.03;7.23;;;15.50;1.00;16.40;100615.00;;;;4903858;29;20451;-79
2021/08/29 00:17:49;;;;;;;8.50;7.70;;;15.50;1.00;16.30;100599.00;;;;4888664;29;20495;-80
2021/08/29 00:20:17;;;;;;;9.77;8.77;;;15.40;1.00;16.30;100602.00;;;;4895979;29;20531;-81
2021/08/29 00:22:49;;;;;;;8.10;7.33;;;15.50;1.00;16.30;100605.00;;;;4900936;29;20454;-78
2021/08/29 00:25:18;;;;;;;10.13;9.03;;;15.40;1.00;16.30;100617.00;;;;4891415;29;20640;-80
2021/08/29 00:27:46;;;;;;;5.50;5.00;;;15.40;1.00;16.20;100603.00;;;;4899213;29;20605;-80
2021/08/29 00:30:16;;;;;;;5.30;4.80;;;15.40;1.00;16.10;100617.00;;;;4899119;29;20523;-79
2021/08/29 00:32:45;;;;;;;7.90;6.70;;;15.40;1.00;16.10;100612.00;;;;4914739;29;20483;-84
2021/08/29 00:35:13;;;;;;;6.80;6.20;;;15.30;1.00;16.00;100607.00;;;;4912221;29;20455;-82
2021/08/29 00:37:42;;;;;;;7.63;6.70;;;15.20;1.00;16.00;100598.00;;;;4920300;29;20427;-82
2021/08/29 00:40:12;;;;;;;7.63;6.80;;;15.20;1.00;16.00;100599.00;;;;4898439;29;20490;-83
2021/08/29 00:42:40;;;;;;;6.93;6.33;;;15.20;1.00;16.00;100603.00;;;;4896874;29;20473;-82
2021/08/29 00:45:09;;;;;;;7.17;6.43;;;15.20;1.00;16.00;100580.00;;;;4887415;29;20470;-80
2021/08/29 00:47:40;;;;;;;7.23;6.53;;;15.20;1.00;15.90;100582.00;;;;4895991;29;20479;-80
2021/08/29 00:50:10;;;;;;;7.50;6.80;;;15.20;1.00;16.00;100605.00;;;;4887058;29;20937;-84
2021/08/29 00:52:40;;;;;;;8.83;7.60;;;15.20;1.00;16.00;100595.00;;;;4893559;29;20471;-81
2021/08/29 00:55:10;;;;;;;9.57;7.73;;;15.20;1.00;16.00;100594.00;;;;4893240;29;21155;-85
2021/08/29 00:57:44;;;;;;;8.03;7.33;;;15.20;1.00;15.90;100595.00;;;;4893676;29;20462;-81
2021/08/29 01:00:16;;;;;;;7.10;6.40;;;15.20;1.00;15.90;100593.00;;;;4891481;29;20898;-81
2021/08/29 01:02:52;;;;;;;6.50;5.90;;;15.20;1.00;15.90;100559.00;;;;4890501;29;20848;-80
2021/08/29 01:05:29;;;;;;;6.97;5.93;;;15.10;1.00;15.80;100575.00;;;;4882724;29;20462;-79
2021/08/29 01:08:18;;;;;;;5.30;4.80;;;15.10;1.00;15.90;100572.00;;;;4887618;29;20467;-82
2021/08/29 01:10:58;;;;;;;5.30;4.80;;;15.10;1.00;15.90;100560.00;;;;4897035;29;20483;-79
2021/08/29 01:13:32;;;;;;;5.53;5.00;;;15.10;1.00;15.90;100562.00;;;;4888120;29;20551;-81
2021/08/29 01:16:07;;;;;;;5.20;4.40;;;15.10;1.00;16.00;100571.00;;;;4879617;29;20459;-79
2021/08/29 01:18:45;;;;;;;4.60;4.20;;;15.20;1.00;16.00;100554.00;;;;4883146;29;20467;-80
2021/08/29 01:21:17;;;;;;;5.13;4.63;;;15.20;1.00;16.00;100553.00;;;;4891599;29;20486;-80
2021/08/29 01:23:51;;;;;;;4.73;3.97;;;15.20;1.00;16.10;100569.00;;;;4898624;29;20463;-80
2021/08/29 01:26:27;;;;;;;3.80;3.27;;;15.20;1.00;16.10;100565.00;;;;4888573;29;20451;-80
2021/08/29 01:28:59;;;;;;;3.83;3.50;;;15.20;1.00;16.00;100568.00;;;;4900374;29;20478;-81
2021/08/29 01:31:30;;;;;;;3.20;2.90;;;15.10;1.00;16.00;100573.00;;;;4882876;29;20480;-80
2021/08/29 01:34:03;;;;;;;4.30;3.77;;;15.10;1.00;16.00;100562.00;;;;4896186;29;20519;-82
2021/08/29 01:36:34;;;;;;;4.20;3.60;;;15.10;1.00;16.00;100572.00;;;;4902790;29;20492;-79
2021/08/29 01:39:08;;;;;;;5.23;4.73;;;15.10;1.00;15.90;100557.00;;;;4887390;29;20609;-78
2021/08/29 01:41:40;;;;;;;5.07;4.67;;;15.10;1.00;15.90;100576.00;;;;4899655;29;20559;-79
2021/08/29 01:44:11;;;;;;;5.23;4.73;;;15.00;1.00;15.90;100569.00;;;;4901871;29;20527;-80
2021/08/29 01:46:43;;;;;;;5.47;4.97;;;15.10;1.00;15.80;100554.00;;;;4904094;29;20444;-83
2021/08/29 01:49:13;;;;;;;5.93;5.23;;;15.00;1.00;15.80;100565.00;;;;4919481;29;20558;-84
2021/08/29 01:51:45;;;;;;;8.50;5.17;;;15.10;1.00;15.80;100565.00;;;;4927415;29;20464;-84
2021/08/29 01:54:39;;;;;;;7.00;6.23;;;15.10;1.00;15.80;100563.00;;;;4914644;29;20467;-84
2021/08/29 01:57:21;;;;;;;6.17;5.53;;;15.10;1.00;15.80;100573.00;;;;4904244;29;20466;-81
2021/08/29 01:59:58;;;;;;;8.17;5.93;;;15.10;1.00;15.80;100571.00;;;;4907692;29;20474;-82
2021/08/29 02:02:29;;;;;;;6.00;5.40;;;15.10;1.00;15.80;100571.00;;;;4911055;29;20480;-81
2021/08/29 02:04:58;;;;;;;6.67;5.37;;;15.10;1.00;15.80;100530.00;;;;4910986;29;20458;-83
2021/08/29 02:07:33;;;;;;;6.43;5.83;;;15.10;1.00;15.80;100564.00;;;;4905176;29;20502;-81
2021/08/29 02:10:25;;;;;;;10.57;7.60;;;15.00;1.00;15.80;100575.00;;;;4921745;29;20514;-85
2021/08/29 02:13:11;;;;;;;7.83;6.67;;;15.10;1.00;15.80;100571.00;;;;4913773;29;20463;-83
2021/08/29 02:15:46;;;;;;;8.70;6.53;;;15.10;1.00;15.80;100576.00;;;;4905266;29;20467;-86
2021/08/29 02:18:16;;;;;;;7.33;6.47;;;15.10;1.00;15.80;100565.00;;;;4915855;29;20458;-83
2021/08/29 02:20:49;;;;;;;13.00;7.20;;;15.10;1.00;15.80;100568.00;;;;4907466;29;20531;-85
2021/08/29 02:23:19;;;;;;;10.10;7.20;;;15.10;1.00;15.70;100524.00;;;;4905589;29;20495;-85
2021/08/29 02:25:50;;;;;;;7.40;6.37;;;15.10;1.00;15.70;100562.00;;;;4903082;29;20466;-85
2021/08/29 02:28:20;;;;;;;9.53;8.47;;;15.10;1.00;15.80;100559.00;;;;4896787;29;20491;-83
2021/08/29 02:30:51;;;;;;;10.40;6.60;;;15.10;1.00;15.80;100526.00;;;;4906678;29;21022;-82
2021/08/29 02:33:21;;;;;;;7.67;5.73;;;15.10;1.00;15.60;100544.00;;;;4908329;29;20461;-84
2021/08/29 02:35:51;;;;;;;7.70;6.33;;;15.10;1.00;15.70;100551.00;;;;4921734;29;20669;-84
2021/08/29 02:38:24;;;;;;;8.20;5.97;;;15.10;1.00;15.60;100556.00;;;;4911640;29;20557;-83
2021/08/29 02:40:56;;;;;;;5.90;5.30;;;15.10;1.00;15.70;100562.00;;;;4909680;29;20472;-84
2021/08/29 02:43:25;;;;;;;7.47;6.37;;;15.00;1.00;15.60;100533.00;;;;4911216;29;20538;-82
2021/08/29 02:45:57;;;;;;;8.03;6.93;;;15.00;1.00;15.70;100558.00;;;;4906010;29;20538;-81
2021/08/29 02:48:31;;;;;;;7.60;6.30;;;15.10;1.00;15.70;100571.00;;;;4899883;29;20459;-82
2021/08/29 02:51:01;;;;;;;6.47;5.87;;;15.10;1.00;15.70;100554.00;;;;4907904;29;20486;-82
2021/08/29 02:53:29;;;;;;;6.70;5.70;;;15.10;1.00;15.80;100556.00;;;;4898029;29;20447;-83
2021/08/29 02:56:00;;;;;;;6.63;5.90;;;15.10;1.00;15.80;100566.00;;;;4898227;29;20803;-82
2021/08/29 02:58:36;;;;;;;7.57;5.60;;;15.10;1.00;15.80;100499.00;;;;4895833;29;20463;-80
2021/08/29 03:01:08;;;;;;;6.70;5.97;;;15.10;1.00;15.80;100559.00;;;;4902145;29;20486;-83
2021/08/29 03:03:56;;;;;;;5.80;5.20;;;15.10;1.00;15.80;100552.00;;;;4898182;29;20543;-79
2021/08/29 03:06:27;;;;;;;6.70;5.10;;;15.10;1.00;15.80;100520.00;;;;4908065;29;21708;-82
2021/08/29 03:08:56;;;;;;;5.97;5.13;;;15.10;1.00;15.80;100560.00;;;;4903005;29;20577;-80
2021/08/29 03:11:26;;;;;;;5.20;4.20;;;15.10;1.00;15.70;100557.00;;;;4905149;29;20542;-82
2021/08/29 03:13:55;;;;;;;4.70;4.23;;;15.10;1.00;15.70;100505.00;;;;4902796;29;20502;-83
2021/08/29 03:16:25;;;;;;;3.63;3.33;;;15.10;1.00;15.70;100536.00;;;;4905722;29;20479;-81
2021/08/29 03:18:55;;;;;;;4.30;3.90;;;15.00;1.00;15.70;100522.00;;;;4903602;29;20526;-80
2021/08/29 03:21:47;;;;;;;3.20;2.90;;;15.00;1.00;15.70;100550.00;;;;4876879;29;20491;-82
2021/08/29 03:24:17;;;;;;;4.17;3.27;;;15.00;1.00;15.70;100529.00;;;;4901518;29;20531;-83
2021/08/29 03:26:46;;;;;;;3.80;3.33;;;15.00;1.00;15.60;100547.00;;;;4892051;29;21000;-81
2021/08/29 03:29:24;;;;;;;3.40;2.70;;;15.00;1.00;15.60;100532.00;;;;4889915;29;20489;-81
2021/08/29 03:31:54;;;;;;;3.07;2.53;;;15.00;1.00;15.60;100550.00;;;;4897707;29;20467;-81
2021/08/29 03:34:24;;;;;;;3.00;2.70;;;15.00;1.00;15.50;100546.00;;;;4897532;29;20447;-82
2021/08/29 03:36:53;;;;;;;3.00;2.33;;;14.90;1.00;15.50;100554.00;;;;4888788;29;20487;-80
2021/08/29 03:39:28;;;;;;;2.40;2.20;;;14.90;1.00;15.50;100543.00;;;;4895075;29;20495;-83
2021/08/29 03:41:59;;;;;;;2.43;2.20;;;14.90;1.00;15.50;100554.00;;;;4896711;29;20463;-82
2021/08/29 03:44:30;;;;;;;3.80;2.70;;;14.90;1.00;15.50;100548.00;;;;4904727;29;20542;-79
2021/08/29 03:47:01;;;;;;;2.40;2.17;;;14.90;1.00;15.50;100557.00;;;;4903827;29;20832;-81
2021/08/29 03:49:38;;;;;;;2.63;2.43;;;14.90;1.00;15.50;100558.00;;;;4890487;29;20498;-80
2021/08/29 03:52:13;;;;;;;2.03;1.83;;;14.90;1.00;15.50;100521.00;;;;4891323;29;20467;-81
2021/08/29 03:55:01;;;;;;;4.30;2.43;;;14.90;1.00;15.50;100532.00;;;;4891033;29;20515;-79
2021/08/29 03:57:32;;;;;;;2.13;1.90;;;14.90;1.00;15.50;100548.00;;;;4906447;29;20455;-80
2021/08/29 04:00:01;;;;;;;4.43;3.00;;;14.90;1.00;15.50;100539.00;;;;4881569;29;20934;-80
2021/08/29 04:02:33;;;;;;;2.50;2.17;;;14.90;1.00;15.50;100544.00;;;;4902660;29;20481;-79
2021/08/29 04:05:02;;;;;;;2.80;2.50;;;14.90;1.00;15.50;100548.00;;;;4895559;29;20459;-81
2021/08/29 04:07:31;;;;;;;3.10;2.50;;;14.90;1.00;15.50;100540.00;;;;4896641;29;20476;-79
2021/08/29 04:10:20;;;;;;;2.70;2.30;;;14.90;1.00;15.40;100542.00;;;;4900589;29;20479;-82
2021/08/29 04:12:49;;;;;;;3.57;2.67;;;14.80;1.00;15.40;100545.00;;;;4904590;29;20455;-80
2021/08/29 04:15:47;;;;;;;3.67;2.67;;;14.80;1.00;15.40;100541.00;;;;4913838;29;20463;-78
2021/08/29 04:18:18;;;;;;;3.10;2.80;;;14.80;1.00;15.40;100536.00;;;;4932285;29;20451;-81
2021/08/29 04:20:47;;;;;;;2.80;2.30;;;14.80;1.00;15.40;100539.00;;;;4900294;29;20514;-79
2021/08/29 04:23:16;;;;;;;2.87;2.53;;;14.80;1.00;15.30;100535.00;;;;4914203;29;20483;-79
2021/08/29 04:25:46;;;;;;;4.93;2.63;;;14.80;1.00;15.40;100522.00;;;;4887766;29;20539;-79
2021/08/29 04:28:15;;;;;;;3.43;2.77;;;14.80;1.00;15.30;100531.00;;;;4894930;29;20469;-79
2021/08/29 04:30:46;;;;;;;3.63;2.70;;;14.80;1.00;15.30;100534.00;;;;4894178;29;20626;-79
2021/08/29 04:33:15;;;;;;;4.20;3.20;;;14.80;1.00;15.30;100524.00;;;;4900713;29;20548;-79
2021/08/29 04:36:09;;;;;;;2.83;2.60;;;14.80;1.00;15.30;100510.00;;;;4889754;29;20859;-79
2021/08/29 04:38:38;;;;;;;3.03;2.70;;;14.80;1.00;15.30;100541.00;;;;4885943;29;20583;-81
2021/08/29 04:41:07;;;;;;;3.37;3.00;;;14.70;1.00;15.30;100529.00;;;;4897422;29;20463;-81
2021/08/29 04:43:35;;;;;;;3.53;2.40;;;14.80;1.00;15.30;100535.00;;;;4896562;29;20511;-80
2021/08/29 04:46:05;;;;;;;5.43;2.97;;;14.70;1.00;15.30;100537.00;;;;4896838;29;20490;-79
2021/08/29 04:48:33;;;;;;;3.93;2.77;;;14.70;1.00;15.20;100541.00;;;;4890638;29;20486;-80
2021/08/29 04:51:02;;;;;;;3.30;3.00;;;14.70;1.00;15.20;100531.00;;;;4893970;29;20471;-82
2021/08/29 04:53:32;;;;;;;3.67;3.37;;;14.70;1.00;15.20;100526.00;;;;4885342;29;20985;-81
2021/08/29 04:56:00;;;;;;;4.57;2.70;;;14.70;1.00;15.20;100544.00;;;;4893822;29;20463;-80
2021/08/29 04:58:32;;;;;;;3.27;2.97;;;14.70;1.00;15.20;100549.00;;;;4890882;29;20550;-81
2021/08/29 05:01:00;;;;;;;3.03;2.43;;;14.80;1.00;15.30;100543.00;;;;4895550;29;20558;-81
2021/08/29 05:03:29;;;;;;;3.70;2.50;;;14.80;1.00;15.30;100540.00;;;;4891540;29;20487;-80
2021/08/29 05:05:58;;;;;;;3.23;2.77;;;14.80;1.00;15.20;100542.00;;;;4884309;29;20459;-80
2021/08/29 05:08:31;;;;;;;3.13;2.87;;;14.90;1.00;15.20;100543.00;;;;4881006;29;20463;-81
2021/08/29 05:11:00;;;;;;;3.23;2.50;;;14.80;1.00;15.20;100542.00;;;;4888356;29;20511;-80
2021/08/29 05:13:28;;;;;;;2.80;2.60;;;14.70;1.00;15.20;100541.00;;;;4889390;29;20500;-80
2021/08/29 05:15:57;;;;;;;2.90;2.60;;;14.80;1.00;15.20;100534.00;;;;4890677;29;20459;-80
2021/08/29 05:18:25;;;;;;;4.03;2.73;;;14.70;1.00;15.30;100532.00;;;;4890151;29;20452;-79
2021/08/29 05:21:15;;;;;;;2.87;2.30;;;14.90;1.00;15.30;100527.00;;;;4891177;29;20475;-80
2021/08/29 05:24:04;;;;;;;4.47;2.97;;;14.80;1.00;15.30;100551.00;;;;4896797;29;20462;-79
2021/08/29 05:26:52;;;;;;;2.70;2.40;;;14.80;1.00;15.40;100521.00;;;;4904511;29;20470;-80
2021/08/29 05:29:22;;;;;;;3.63;2.97;;;14.80;1.00;15.30;100525.00;;;;4913295;29;20527;-79
2021/08/29 05:31:54;;;;;;;2.70;2.50;;;14.90;1.00;15.40;100548.00;;;;4912302;29;20436;-79
2021/08/29 05:34:30;;;;;;;3.67;2.10;;;14.90;1.00;15.40;100543.00;;;;4904852;29;20603;-80
2021/08/29 05:36:59;;;;;;;3.20;2.57;;;14.90;1.00;15.50;100544.00;;;;4897703;29;20869;-79
2021/08/29 05:39:44;;;;;;;2.37;1.97;;;15.00;1.00;15.50;100539.00;;;;4894876;29;20565;-80
2021/08/29 05:42:12;;;;;;;2.20;2.00;;;15.00;1.00;15.40;100543.00;;;;4901930;29;20490;-80
2021/08/29 05:44:49;;;;;;;3.90;2.53;;;15.00;1.00;15.50;100542.00;;;;4892198;29;20459;-80
2021/08/29 05:47:18;;;;;;;3.77;2.50;;;15.00;1.00;15.50;100534.00;;;;4890980;29;20455;-79
2021/08/29 05:49:47;;;;;;;2.47;2.27;;;15.00;1.00;15.50;100548.00;;;;4891962;29;20479;-79
2021/08/29 05:52:15;;;;;;;2.60;2.40;;;15.00;1.00;15.50;100542.00;;;;4889334;29;20459;-79
2021/08/29 05:54:47;;;;;;;3.53;2.33;;;15.00;1.00;15.60;100549.00;;;;4892091;29;20519;-79
2021/08/29 05:57:15;;;;;;;2.93;2.40;;;15.10;1.00;15.60;100532.00;;;;4889804;29;20558;-79
2021/08/29 05:59:43;;;;;;;2.57;2.37;;;15.10;1.00;15.60;100542.00;;;;4888064;29;20528;-79
2021/08/29 06:02:12;;;;;;;2.53;2.20;;;15.20;1.00;15.70;100554.00;;;;4891460;29;20682;-79
2021/08/29 06:04:41;;;;;;;4.13;2.33;;;15.30;1.00;15.70;100532.00;;;;4883065;29;20578;-79
2021/08/29 06:07:17;;;;;;;2.33;2.13;;;15.30;1.00;15.70;100549.00;;;;4892379;29;20526;-79
2021/08/29 06:09:56;;;;;;;2.67;1.97;;;15.20;1.00;15.80;100508.00;;;;4892040;29;20483;-79
2021/08/29 06:12:24;;;;;;;2.07;1.87;;;15.30;1.00;15.80;100549.00;;;;4893887;29;20590;-79
2021/08/29 06:14:53;;;;;;;2.87;1.90;;;15.30;1.00;15.80;100556.00;;;;4908418;29;20455;-80
2021/08/29 06:17:21;;;;;;;2.70;2.07;;;15.40;1.00;15.80;100549.00;;;;4887069;29;20467;-80
2021/08/29 06:19:50;;;;;;;3.87;2.07;;;15.40;1.00;15.90;100545.00;;;;4893373;29;20495;-80
2021/08/29 06:22:19;;;;;;;2.97;2.50;;;15.40;1.00;15.80;100528.00;;;;4895980;29;20538;-80
2021/08/29 06:25:09;;;;;;;4.20;2.07;;;15.40;1.00;15.80;100536.00;;;;4894447;29;20855;-80
2021/08/29 06:27:56;;;;;;;2.53;2.17;;;15.40;1.00;15.80;100536.00;;;;4899163;29;20581;-80
2021/08/29 06:30:47;;;;;;;4.23;1.93;;;15.30;1.00;15.80;100544.00;;;;4884112;29;20536;-79
2021/08/29 06:33:35;;;;;;;2.23;2.03;;;15.30;1.00;15.90;100543.00;;;;4900628;29;20496;-80
2021/08/29 06:36:07;;;;;;;5.37;2.00;;;15.40;1.00;15.90;100530.00;;;;4897754;29;20467;-79
2021/08/29 06:38:35;;;;;;;3.20;2.90;;;15.40;1.00;15.90;100524.00;;;;4892407;29;20562;-80
2021/08/29 06:41:05;;;;;;;3.43;2.60;;;15.40;1.00;15.90;100534.00;;;;4890948;29;21055;-77
2021/08/29 06:43:34;;;;;;;3.13;2.40;;;15.50;1.00;15.90;100537.00;;;;4912401;29;20475;-80
2021/08/29 06:46:21;;;;;;;1.90;1.53;;;15.50;1.00;15.90;100507.00;;;;4905202;29;20491;-77
2021/08/29 06:49:09;;;;;;;2.33;2.13;;;15.40;1.00;15.90;100527.00;;;;4908170;29;20511;-78
2021/08/29 06:52:15;;;;;;;3.57;2.13;;;15.50;1.00;16.00;100520.00;;;;4895099;29;20499;-79
2021/08/29 06:55:02;;;;;;;2.20;1.60;;;15.50;1.00;16.00;100531.00;;;;4893708;29;20466;-79
2021/08/29 06:57:50;;;;;;;3.23;1.67;;;15.50;1.00;16.10;100531.00;;;;4891870;29;20482;-79
2021/08/29 07:00:19;;;;;;;3.90;3.07;;;15.50;1.00;16.10;100538.00;;;;4882462;29;20593;-79
2021/08/29 07:02:52;;;;;;;4.33;3.37;;;15.60;1.00;16.10;100529.00;;;;4891993;29;21000;-80
2021/08/29 07:05:25;;;;;;;2.40;2.20;;;15.60;1.00;16.10;100533.00;;;;4883557;29;20572;-79
2021/08/29 07:08:12;;;;;;;1.80;1.70;;;15.60;1.00;16.00;100509.00;;;;4898550;29;20547;-79
2021/08/29 07:10:45;;;;;;;2.90;1.63;;;15.60;1.00;15.90;100520.00;;;;4891413;29;20486;-79
2021/08/29 07:13:38;;;;;;;2.17;1.37;;;15.50;1.00;15.90;100534.00;;;;4869886;29;21091;-79
2021/08/29 07:16:06;;;;;;;5.30;1.93;;;15.50;1.00;15.90;100528.00;;;;4904500;29;20795;-79
2021/08/29 07:18:35;;;;;;;1.80;1.60;;;15.50;1.00;16.00;100531.00;;;;4905785;29;20459;-79
2021/08/29 07:21:21;;;;;;;2.77;1.60;;;15.50;1.00;16.10;100525.00;;;;4890960;29;20542;-79
2021/08/29 07:23:56;;;;;;;2.30;1.90;;;15.60;1.00;16.10;100524.00;;;;4891032;29;20489;-80
2021/08/29 07:26:43;;;;;;;3.03;2.37;;;15.70;1.00;16.20;100523.00;;;;4893352;29;20454;-80
2021/08/29 07:29:32;;;;;;;3.17;2.80;;;15.70;1.00;16.20;100531.00;;;;4893146;29;20622;-80
2021/08/29 07:32:19;;;;;;;5.23;2.40;;;15.70;1.00;16.20;100527.00;;;;4891132;29;20462;-80
2021/08/29 07:34:47;;;;;;;2.00;1.80;;;15.80;1.00;16.20;100532.00;;;;4892594;29;20522;-80
2021/08/29 07:37:48;;;;;;;2.60;1.47;;;15.70;1.00;16.20;100536.00;;;;4863062;29;20459;-80
2021/08/29 07:40:19;;;;;;;2.57;1.80;;;15.80;1.00;16.30;100523.00;;;;4893726;29;20897;-80
2021/08/29 07:42:48;;;;;;;2.43;1.70;;;15.80;1.00;16.20;100532.00;;;;4893847;29;21266;-80
2021/08/29 07:45:18;;;;;;;3.00;1.80;;;15.80;1.00;16.30;100532.00;;;;4904171;29;20474;-80
2021/08/29 07:47:52;;;;;;;3.40;2.07;;;15.80;1.00;16.30;100513.00;;;;4894983;29;20463;-80
2021/08/29 07:50:22;;;;;;;2.30;1.60;;;15.90;1.00;16.40;100523.00;;;;4897080;29;20483;-81
2021/08/29 07:52:51;;;;;;;2.20;1.70;;;15.90;1.00;16.50;100519.00;;;;4904042;29;20474;-80
2021/08/29 07:55:52;;;;;;;1.83;1.60;;;16.00;1.00;16.50;100539.00;;;;4893741;29;20445;-81
2021/08/29 07:58:26;;;;;;;3.90;2.17;;;16.00;1.00;16.50;100516.00;;;;4908912;29;20451;-80
2021/08/29 08:01:06;;;;;;;2.03;1.60;;;16.10;1.00;16.60;100527.00;;;;4896407;29;20489;-80
2021/08/29 08:03:35;;;;;;;3.03;2.17;;;16.10;1.00;16.60;100527.00;;;;4899438;29;20483;-80
2021/08/29 08:06:22;;;;;;;4.00;1.90;;;16.10;1.00;16.50;100532.00;;;;4896188;29;20575;-80
2021/08/29 08:08:50;;;;;;;3.00;2.37;;;16.00;1.00;16.50;100522.00;;;;4894977;29;20522;-80
2021/08/29 08:11:37;;;;;;;3.27;2.23;;;16.00;1.00;16.50;100536.00;;;;4895609;29;20819;-81
2021/08/29 08:14:06;;;;;;;3.30;2.67;;;16.00;1.00;16.60;100531.00;;;;4892387;29;20499;-79
2021/08/29 08:16:36;;;;;;;4.50;3.17;;;16.10;1.00;16.50;100526.00;;;;4901889;29;20840;-80
2021/08/29 08:19:16;;;;;;;3.03;2.63;;;16.10;1.00;16.60;100528.00;;;;4886493;29;20474;-80
2021/08/29 08:21:45;;;;;;;7.40;6.70;;;16.10;1.00;16.60;100524.00;;;;4902988;29;20475;-80
2021/08/29 08:24:22;;;;;;;8.20;7.40;;;16.10;1.00;16.60;100519.00;;;;4909789;29;20515;-79
2021/08/29 08:27:09;;;;;;;6.53;5.90;;;16.20;1.00;16.70;100535.00;;;;4895980;29;20457;-80
2021/08/29 08:29:56;;;;;;;4.90;4.50;;;16.20;1.00;16.80;100521.00;;;;4897801;29;20562;-85
2021/08/29 08:32:44;;;;;;;4.23;3.70;;;16.40;1.00;17.00;100521.00;;;;4897147;29;20878;-80
2021/08/29 08:35:31;;;;;;;5.30;4.30;;;16.50;1.00;17.00;100535.00;;;;4895718;29;20459;-81
2021/08/29 08:38:11;;;;;;;3.70;3.30;;;16.60;1.00;17.10;100539.00;;;;4893018;29;20486;-81
2021/08/29 08:40:57;;;;;;;4.17;3.77;;;16.60;1.00;17.00;100553.00;;;;4912805;29;20473;-81
2021/08/29 08:43:43;;;;;;;4.83;3.70;;;16.60;1.00;17.00;100526.00;;;;4912418;29;20478;-82
2021/08/29 08:46:31;;;;;;;3.73;3.33;;;16.50;1.00;16.80;100545.00;;;;4911174;29;20566;-81
2021/08/29 08:49:28;;;;;;;6.70;4.40;;;16.40;1.00;16.70;100547.00;;;;4895729;29;20485;-81
2021/08/29 08:52:20;;;;;;;6.93;3.90;;;16.30;1.00;16.70;100539.00;;;;4908639;29;20491;-80
2021/08/29 08:55:27;;;;;;;5.57;5.07;;;16.30;1.00;16.70;100550.00;;;;4894586;29;20948;-81
2021/08/29 08:58:17;;;;;;;6.40;5.20;;;16.30;1.00;16.70;100554.00;;;;4890440;29;21329;-80
2021/08/29 09:01:05;;;;;;;6.83;4.10;;;16.40;1.00;16.80;100539.00;;;;4890386;29;20487;-79
2021/08/29 09:03:53;;;;;;;5.27;4.67;;;16.40;1.00;16.80;100557.00;;;;4906296;29;20474;-80
2021/08/29 09:06:33;;;;;;;6.77;5.33;;;16.40;1.00;16.70;100546.00;;;;4905132;29;20487;-80
2021/08/29 09:09:03;;;;;;;5.27;4.30;;;16.40;1.00;16.70;100548.00;;;;4898072;29;20474;-80
2021/08/29 09:11:41;;;;;;;5.77;5.20;;;16.30;1.00;16.60;100548.00;;;;4903915;29;20474;-79
2021/08/29 09:14:11;;;;;;;4.90;4.40;;;16.30;1.00;16.60;100526.00;;;;4906392;29;20470;-80
2021/08/29 09:16:39;;;;;;;5.83;5.23;;;16.20;1.00;16.60;100544.00;;;;4902677;29;20474;-80
2021/08/29 09:19:08;;;;;;;4.73;4.03;;;16.20;1.00;16.70;100506.00;;;;4902522;29;20480;-80
2021/08/29 09:21:42;;;;;;;5.20;4.70;;;16.30;1.00;16.60;100528.00;;;;4891255;29;20505;-80
2021/08/29 09:24:20;;;;;;;5.30;4.00;;;16.20;1.00;16.60;100540.00;;;;4899560;29;20474;-79
2021/08/29 09:27:15;;;;;;;5.87;3.93;;;16.30;1.00;16.70;100538.00;;;;4887647;29;20546;-80
2021/08/29 09:30:07;;;;;;;6.20;4.53;;;16.30;1.00;16.80;100532.00;;;;4898224;29;20479;-80
2021/08/29 09:32:36;;;;;;;5.03;4.53;;;16.30;1.00;16.90;100543.00;;;;4891427;29;20452;-80
2021/08/29 09:35:10;;;;;;;7.63;4.60;;;16.40;1.00;17.00;100547.00;;;;4898211;29;21083;-81
2021/08/29 09:38:17;;;;;;;6.73;4.30;;;16.50;1.00;17.10;100544.00;;;;4898731;29;20467;-80
2021/08/29 09:41:25;;;;;;;5.83;5.23;;;16.60;1.00;17.20;100544.00;;;;4890196;29;20447;-80
2021/08/29 09:44:16;;;;;;;4.80;4.07;;;16.70;1.00;17.30;100545.00;;;;4897096;29;21492;-80
2021/08/29 09:46:54;;;;;;;5.53;3.67;;;16.80;1.00;17.30;100538.00;;;;4896794;29;20468;-80
2021/08/29 09:49:58;;;;;;;5.63;3.80;;;16.80;1.00;17.20;100539.00;;;;4888733;29;20515;-80
2021/08/29 09:53:01;;;;;;;4.40;3.90;;;16.60;1.00;17.20;100542.00;;;;4893075;29;20455;-80
2021/08/29 09:55:51;;;;;;;4.77;4.23;;;16.70;1.00;17.20;100542.00;;;;4894317;29;20467;-80
2021/08/29 09:58:38;;;;;;;6.20;5.00;;;16.70;1.00;17.20;100542.00;;;;4894417;29;20451;-80
2021/08/29 10:01:18;;;;;;;4.47;3.70;;;16.70;1.00;17.20;100530.00;;;;4890501;29;20462;-80
2021/08/29 10:04:19;;;;;;;3.90;3.40;;;16.80;1.00;17.20;100544.00;;;;4890336;29;20480;-80
2021/08/29 10:06:50;;;;;;;4.67;4.27;;;16.80;1.00;17.30;100530.00;;;;4895408;29;20474;-79
2021/08/29 10:09:26;;;;;;;4.50;3.80;;;16.90;1.00;17.40;100513.00;;;;4897135;29;20511;-80
2021/08/29 10:12:07;;;;;;;4.33;3.40;;;16.90;1.00;17.40;100531.00;;;;4888016;29;20569;-79
2021/08/29 10:14:38;;;;;;;3.53;3.23;;;16.80;1.00;17.30;100533.00;;;;4889253;29;20466;-79
2021/08/29 10:17:26;;;;;;;6.00;3.70;;;16.90;1.00;17.30;100528.00;;;;4899080;29;21136;-80
2021/08/29 10:20:32;;;;;;;3.83;3.53;;;16.90;1.00;17.30;100537.00;;;;4867453;29;20480;-80
2021/08/29 10:23:29;;;;;;;4.13;3.73;;;16.90;1.00;17.40;100531.00;;;;4906997;29;20470;-80
2021/08/29 10:25:59;;;;;;;8.13;3.70;;;17.00;1.00;17.50;100538.00;;;;4916589;29;20482;-82
2021/08/29 10:28:53;;;;;;;5.07;3.50;;;17.10;1.00;17.60;100523.00;;;;4911427;29;20470;-80
2021/08/29 10:31:48;;;;;;;4.77;3.40;;;17.20;1.00;17.60;100526.00;;;;4905245;29;20508;-81
2021/08/29 10:34:23;;;;;;;4.97;4.03;;;17.10;1.00;17.60;100534.00;;;;4891030;29;20491;-81
2021/08/29 10:36:53;;;;;;;4.43;3.70;;;17.10;1.00;17.60;100513.00;;;;4896732;29;20451;-80
2021/08/29 10:39:40;;;;;;;4.60;3.30;;;17.20;1.00;17.70;100522.00;;;;4898866;29;20487;-81
2021/08/29 10:42:22;;;;;;;5.20;3.27;;;17.30;1.00;17.90;100503.00;;;;4897205;29;20455;-81
2021/08/29 10:45:12;;;;;;;6.73;6.13;;;17.40;1.00;18.00;100531.00;;;;4897564;29;20486;-82
2021/08/29 10:48:02;;;;;;;3.10;2.80;;;17.50;1.00;17.90;100515.00;;;;4896837;29;20980;-81
2021/08/29 10:50:51;;;;;;;2.90;2.70;;;17.40;1.00;17.70;100527.00;;;;4896272;29;20510;-81
2021/08/29 10:53:34;;;;;;;3.93;3.30;;;17.20;1.00;17.50;100537.00;;;;4890811;29;20498;-80
2021/08/29 10:56:35;;;;;;;5.27;4.00;;;17.10;1.00;17.50;100531.00;;;;4894851;29;20467;-81
2021/08/29 10:59:28;;;;;;;3.60;3.30;;;17.10;1.00;17.60;100527.00;;;;4910615;29;20494;-79
2021/08/29 11:02:15;;;;;;;3.93;3.00;;;17.20;1.00;17.60;100529.00;;;;4902998;29;20477;-79
2021/08/29 11:05:02;;;;;;;5.93;3.03;;;17.20;1.00;17.70;100529.00;;;;4894525;29;20482;-79
2021/08/29 11:07:52;;;;;;;3.93;3.03;;;17.30;1.00;17.70;100533.00;;;;4892857;29;20475;-80
2021/08/29 11:10:47;;;;;;;2.37;2.17;;;17.30;1.00;17.50;100527.00;;;;4886617;29;20493;-80
2021/08/29 11:13:39;;;;;;;3.80;2.70;;;17.10;1.00;17.40;100515.00;;;;4892624;29;21376;-80
2021/08/29 11:16:22;;;;;;;2.33;2.13;;;17.10;1.00;17.40;100518.00;;;;4890794;29;20470;-79
2021/08/29 11:19:13;;;;;;;3.10;2.80;;;17.00;1.00;17.40;100509.00;;;;4890397;29;20958;-80
2021/08/29 11:22:20;;;;;;;3.20;2.90;;;17.00;1.00;17.40;100506.00;;;;4876454;29;20584;-79
2021/08/29 11:25:28;;;;;;;3.40;3.10;;;17.00;1.00;17.40;100519.00;;;;4897484;29;20482;-80
2021/08/29 11:28:31;;;;;;;4.10;3.70;;;17.00;1.00;17.40;100528.00;;;;4903656;29;20471;-81
2021/08/29 11:31:50;;;;;;;2.80;2.50;;;17.00;1.00;17.50;100504.00;;;;4912550;29;20459;-82
2021/08/29 11:34:22;;;;;;;3.20;2.60;;;17.20;1.00;17.50;100509.00;;;;4921067;29;20471;-79
2021/08/29 11:36:52;;;;;;;4.10;3.10;;;17.20;1.00;17.60;100518.00;;;;4917549;29;20467;-79
2021/08/29 11:39:35;;;;;;;3.83;3.10;;;17.30;1.00;17.60;100518.00;;;;4910458;29;20546;-80